createdAt,value
2022-11-25T00:01:19.442Z,100281.78
2022-11-25T00:03:47.921Z,100278.47
2022-11-25T00:06:17.102Z,100277.34
2022-11-25T00:08:47.812Z,100274.28
2022-11-25T00:11:15.813Z,100264.38
2022-11-25T00:13:44.770Z,100261.41
2022-11-25T00:16:13.868Z,100268.88
2022-11-25T00:18:42.063Z,100254.75
2022-11-25T00:21:12.245Z,100260.56
2022-11-25T00:23:41.481Z,100259.28
2022-11-25T00:26:12.664Z,100253.50
2022-11-25T00:28:41.022Z,100247.13
2022-11-25T00:31:10.836Z,100240.53
2022-11-25T00:33:38.910Z,100230.34
2022-11-25T00:36:08.569Z,100235.28
2022-11-25T00:38:36.210Z,100233.06
2022-11-25T00:41:21.858Z,100231.50
2022-11-25T00:44:08.425Z,100228.22
2022-11-25T00:46:35.991Z,100235.53
2022-11-25T00:49:03.699Z,100240.84
2022-11-25T00:51:31.406Z,100239.16
2022-11-25T00:53:59.371Z,100237.91
2022-11-25T00:56:27.471Z,100236.72
2022-11-25T00:58:57.350Z,100235.69
2022-11-25T01:01:25.337Z,100238.19
2022-11-25T01:03:54.284Z,100240.34
2022-11-25T01:06:23.008Z,100232.88
2022-11-25T01:08:51.021Z,100224.75
2022-11-25T01:11:20.485Z,100218.06
2022-11-25T01:14:02.162Z,100221.06
2022-11-25T01:16:33.451Z,100215.41
2022-11-25T01:19:02.790Z,100216.94
2022-11-25T01:21:32.083Z,100212.72
2022-11-25T01:24:01.783Z,100216.59
2022-11-25T01:26:30.894Z,100218.03
2022-11-25T01:29:01.078Z,100220.94
2022-11-25T01:31:31.698Z,100214.22
2022-11-25T01:34:01.045Z,100214.72
2022-11-25T01:36:30.185Z,100213.63
2022-11-25T01:38:59.459Z,100214.25
2022-11-25T01:41:29.739Z,100207.19
2022-11-25T01:44:09.508Z,100210.47
2022-11-25T01:46:54.632Z,100203.59
2022-11-25T01:49:28.659Z,100206.84
2022-11-25T01:51:59.251Z,100208.53
2022-11-25T01:54:31.098Z,100210.66
2022-11-25T01:57:02.485Z,100202.00
2022-11-25T01:59:31.026Z,100205.94
2022-11-25T02:02:00.412Z,100197.56
2022-11-25T02:04:33.505Z,100197.19
2022-11-25T02:07:05.676Z,100193.09
2022-11-25T02:09:34.023Z,100199.09
2022-11-25T02:12:02.374Z,100193.16
2022-11-25T02:14:29.985Z,100196.44
2022-11-25T02:16:57.604Z,100188.66
2022-11-25T02:19:35.798Z,100198.31
2022-11-25T02:22:07.159Z,100188.72
2022-11-25T02:24:41.247Z,100183.41
2022-11-25T02:27:14.327Z,100187.91
2022-11-25T02:29:43.149Z,100188.09
2022-11-25T02:32:10.762Z,100189.56
2022-11-25T02:34:47.728Z,100188.31
2022-11-25T02:37:17.011Z,100189.34
2022-11-25T02:39:45.014Z,100180.13
2022-11-25T02:42:14.413Z,100184.22
2022-11-25T02:44:42.157Z,100192.41
2022-11-25T02:47:11.022Z,100183.41
2022-11-25T02:49:38.813Z,100177.25
2022-11-25T02:52:06.431Z,100176.00
2022-11-25T02:54:34.774Z,100177.44
2022-11-25T02:57:02.549Z,100169.47
2022-11-25T02:59:31.525Z,100169.03
2022-11-25T03:01:59.193Z,100175.00
2022-11-25T03:04:27.682Z,100177.88
2022-11-25T03:06:56.428Z,100171.13
2022-11-25T03:09:23.962Z,100167.44
2022-11-25T03:12:09.122Z,100164.16
2022-11-25T03:14:39.145Z,100170.72
2022-11-25T03:17:07.850Z,100177.28
2022-11-25T03:19:36.174Z,100168.06
2022-11-25T03:22:04.114Z,100177.72
2022-11-25T03:24:33.177Z,100183.03
2022-11-25T03:27:00.781Z,100182.25
2022-11-25T03:29:29.448Z,100174.88
2022-11-25T03:31:58.663Z,100179.38
2022-11-25T03:34:26.486Z,100180.19
2022-11-25T03:36:54.245Z,100189.19
2022-11-25T03:39:22.865Z,100183.66
2022-11-25T03:41:50.761Z,100190.41
2022-11-25T03:44:19.103Z,100197.84
2022-11-25T03:46:46.874Z,100197.84
2022-11-25T03:49:16.682Z,100206.88
2022-11-25T03:51:44.259Z,100201.72
2022-11-25T03:54:12.816Z,100200.09
2022-11-25T03:56:40.627Z,100204.81
2022-11-25T03:59:09.182Z,100212.41
2022-11-25T04:01:41.462Z,100209.75
2022-11-25T04:04:11.886Z,100218.16
2022-11-25T04:07:21.484Z,100218.34
2022-11-25T04:09:50.889Z,100223.28
2022-11-25T04:12:44.301Z,100220.81
2022-11-25T04:15:12.429Z,100221.25
2022-11-25T04:17:40.250Z,100219.16
2022-11-25T04:20:09.489Z,100215.06
2022-11-25T04:22:37.053Z,100222.69
2022-11-25T04:25:07.008Z,100221.63
2022-11-25T04:27:34.969Z,100228.19
2022-11-25T04:30:02.735Z,100232.50
2022-11-25T04:32:30.701Z,100241.72
2022-11-25T04:34:59.449Z,100235.56
2022-11-25T04:37:28.975Z,100234.56
2022-11-25T04:39:57.224Z,100245.84
2022-11-25T04:42:36.774Z,100246.44
2022-11-25T04:45:22.541Z,100245.44
2022-11-25T04:47:50.884Z,100259.38
2022-11-25T04:50:20.695Z,100263.50
2022-11-25T04:52:49.261Z,100258.97
2022-11-25T04:55:16.888Z,100259.59
2022-11-25T04:57:46.173Z,100267.59
2022-11-25T05:00:13.484Z,100268.84
2022-11-25T05:02:41.924Z,100274.97
2022-11-25T05:05:10.924Z,100272.94
2022-11-25T05:07:38.803Z,100272.09
2022-11-25T05:10:08.375Z,100271.31
2022-11-25T05:12:36.224Z,100277.47
2022-11-25T05:15:06.166Z,100271.72
2022-11-25T05:17:34.013Z,100274.19
2022-11-25T05:20:02.115Z,100268.41
2022-11-25T05:22:31.405Z,100267.63
2022-11-25T05:24:59.687Z,100273.16
2022-11-25T05:27:28.262Z,100275.81
2022-11-25T05:29:56.562Z,100282.63
2022-11-25T05:32:26.545Z,100286.91
2022-11-25T05:34:54.307Z,100286.09
2022-11-25T05:37:24.604Z,100290.41
2022-11-25T05:39:52.405Z,100281.19
2022-11-25T05:42:20.112Z,100291.44
2022-11-25T05:44:47.661Z,100294.72
2022-11-25T05:47:15.417Z,100271.34
2022-11-25T05:49:44.550Z,100275.03
2022-11-25T05:52:12.562Z,100267.81
2022-11-25T05:54:40.345Z,100266.19
2022-11-25T05:57:07.887Z,100266.41
2022-11-25T05:59:36.471Z,100260.88
2022-11-25T06:02:04.227Z,100259.19
2022-11-25T06:04:31.883Z,100270.69
2022-11-25T06:07:01.081Z,100279.97
2022-11-25T06:09:29.708Z,100274.63
2022-11-25T06:11:57.321Z,100276.25
2022-11-25T06:14:26.124Z,100275.84
2022-11-25T06:16:54.847Z,100277.06
2022-11-25T06:19:22.525Z,100274.19
2022-11-25T06:21:50.218Z,100276.44
2022-11-25T06:24:24.115Z,100286.50
2022-11-25T06:26:51.747Z,100285.72
2022-11-25T06:29:19.469Z,100285.72
2022-11-25T06:31:51.158Z,100300.50
2022-11-25T06:34:19.586Z,100291.47
2022-11-25T06:36:47.097Z,100292.25
2022-11-25T06:39:14.802Z,100297.59
2022-11-25T06:41:45.410Z,100295.13
2022-11-25T06:44:13.305Z,100296.75
2022-11-25T06:46:40.964Z,100296.34
2022-11-25T06:49:08.569Z,100300.69
2022-11-25T06:51:36.147Z,100310.75
2022-11-25T06:54:05.127Z,100324.91
2022-11-25T06:56:32.984Z,100330.84
2022-11-25T06:59:02.627Z,100335.38
2022-11-25T07:01:31.326Z,100343.56
2022-11-25T07:04:01.333Z,100342.78
2022-11-25T07:06:28.864Z,100351.81
2022-11-25T07:08:56.578Z,100357.16
2022-11-25T07:11:26.123Z,100357.19
2022-11-25T07:13:55.974Z,100366.63
2022-11-25T07:16:25.321Z,100374.38
2022-11-25T07:18:53.050Z,100376.03
2022-11-25T07:21:22.614Z,100388.16
2022-11-25T07:23:51.350Z,100386.34
2022-11-25T07:26:22.237Z,100393.31
2022-11-25T07:30:03.553Z,100396.16
2022-11-25T07:32:41.258Z,100398.84
2022-11-25T07:35:09.139Z,100403.97
2022-11-25T07:37:36.882Z,100400.28
2022-11-25T07:40:05.369Z,100406.41
2022-11-25T07:42:33.146Z,100410.31
2022-11-25T07:45:00.644Z,100413.41
2022-11-25T07:47:28.165Z,100411.75
2022-11-25T07:49:57.449Z,100422.44
2022-11-25T07:52:24.971Z,100424.50
2022-11-25T07:54:54.365Z,100423.72
2022-11-25T07:57:21.949Z,100421.22
2022-11-25T07:59:49.715Z,100423.47
2022-11-25T08:02:17.317Z,100424.88
2022-11-25T08:04:44.929Z,100436.00
2022-11-25T08:07:14.174Z,100431.25
2022-11-25T08:09:41.719Z,100442.94
2022-11-25T08:12:09.244Z,100441.50
2022-11-25T08:14:36.882Z,100446.44
2022-11-25T08:17:06.003Z,100450.72
2022-11-25T08:19:33.919Z,100444.78
2022-11-25T08:22:01.412Z,100451.97
2022-11-25T08:24:30.243Z,100451.81
2022-11-25T08:26:58.816Z,100455.31
2022-11-25T08:29:26.304Z,100463.53
2022-11-25T08:31:53.831Z,100461.50
2022-11-25T08:34:23.559Z,100466.66
2022-11-25T08:36:51.284Z,100477.16
2022-11-25T08:39:51.933Z,100476.09
2022-11-25T08:42:09.993Z,100472.81
2022-11-25T08:44:38.030Z,100482.50
2022-11-25T08:47:05.811Z,100475.09
2022-11-25T08:49:39.072Z,100482.50
2022-11-25T08:52:08.330Z,100477.75
2022-11-25T08:54:35.934Z,100478.41
2022-11-25T08:57:03.702Z,100473.47
2022-11-25T08:59:32.624Z,100471.84
2022-11-25T09:02:01.112Z,100469.56
2022-11-25T09:04:29.183Z,100470.56
2022-11-25T09:06:56.974Z,100483.72
2022-11-25T09:09:24.933Z,100479.19
2022-11-25T09:11:53.326Z,100482.69
2022-11-25T09:14:21.123Z,100473.47
2022-11-25T09:16:50.593Z,100483.94
2022-11-25T09:19:20.478Z,100478.56
2022-11-25T09:21:48.404Z,100478.78
2022-11-25T09:24:16.085Z,100483.72
2022-11-25T09:26:45.267Z,100483.28
2022-11-25T09:29:13.812Z,100486.78
2022-11-25T09:31:42.841Z,100489.03
2022-11-25T09:34:12.113Z,100487.59
2022-11-25T09:36:39.951Z,100487.84
2022-11-25T09:39:07.599Z,100488.44
2022-11-25T09:42:06.668Z,100501.78
2022-11-25T09:45:00.351Z,100499.94
2022-11-25T09:47:32.050Z,100498.50
2022-11-25T09:50:10.542Z,100498.28
2022-11-25T09:52:45.877Z,100494.19
2022-11-25T09:55:17.384Z,100494.78
2022-11-25T09:57:59.587Z,100495.56
2022-11-25T10:00:39.068Z,100501.94
2022-11-25T10:03:13.862Z,100500.94
2022-11-25T10:05:47.231Z,100509.97
2022-11-25T10:08:19.267Z,100510.19
2022-11-25T10:10:49.802Z,100523.50
2022-11-25T10:13:21.103Z,100528.66
2022-11-25T10:15:51.297Z,100542.81
2022-11-25T10:18:37.825Z,100541.41
2022-11-25T10:21:07.334Z,100538.72
2022-11-25T10:23:36.703Z,100546.28
2022-11-25T10:26:13.226Z,100545.22
2022-11-25T10:28:42.335Z,100544.81
2022-11-25T10:31:15.044Z,100543.13
2022-11-25T10:33:45.611Z,100552.88
2022-11-25T10:36:17.576Z,100548.75
2022-11-25T10:38:51.332Z,100561.13
2022-11-25T10:41:22.528Z,100563.19
2022-11-25T10:43:50.380Z,100560.91
2022-11-25T10:46:30.963Z,100554.25
2022-11-25T10:49:15.935Z,100560.81
2022-11-25T10:51:47.814Z,100559.38
2022-11-25T10:54:24.119Z,100563.63
2022-11-25T10:56:56.990Z,100571.03
2022-11-25T10:59:28.002Z,100574.88
2022-11-25T11:02:14.750Z,100577.13
2022-11-25T11:04:56.333Z,100575.16
2022-11-25T11:07:26.300Z,100575.31
2022-11-25T11:09:54.317Z,100574.19
2022-11-25T11:12:23.961Z,100576.28
2022-11-25T11:14:53.293Z,100577.72
2022-11-25T11:17:36.115Z,100583.25
2022-11-25T11:20:26.006Z,100589.31
2022-11-25T11:23:01.132Z,100593.66
2022-11-25T11:25:33.644Z,100587.88
2022-11-25T11:28:02.136Z,100591.66
2022-11-25T11:30:30.977Z,100597.53
2022-11-25T11:33:02.144Z,100596.75
2022-11-25T11:35:41.778Z,100602.72
2022-11-25T11:38:24.444Z,100602.38
2022-11-25T11:40:56.971Z,100608.19
2022-11-25T11:43:36.935Z,100609.91
2022-11-25T11:46:14.897Z,100620.22
2022-11-25T11:48:53.454Z,100617.09
2022-11-25T11:51:25.459Z,100625.38
2022-11-25T11:53:59.575Z,100615.53
2022-11-25T11:56:36.011Z,100619.66
2022-11-25T11:59:18.203Z,100624.25
2022-11-25T12:01:52.902Z,100622.25
2022-11-25T12:04:26.163Z,100627.25
2022-11-25T12:07:01.850Z,100628.69
2022-11-25T12:09:33.964Z,100634.56
2022-11-25T12:12:06.507Z,100649.28
2022-11-25T12:14:40.753Z,100648.06
2022-11-25T12:17:12.855Z,100653.13
2022-11-25T12:19:45.327Z,100648.91
2022-11-25T12:22:20.034Z,100653.44
2022-11-25T12:24:52.573Z,100651.78
2022-11-25T12:27:23.419Z,100653.16
2022-11-25T12:29:54.260Z,100656.28
2022-11-25T12:32:41.636Z,100660.56
2022-11-25T12:35:18.009Z,100658.38
2022-11-25T12:37:48.129Z,100663.41
2022-11-25T12:40:19.878Z,100659.97
2022-11-25T12:42:51.414Z,100677.78
2022-11-25T12:45:23.293Z,100678.28
2022-11-25T12:47:51.864Z,100677.88
2022-11-25T12:50:22.401Z,100677.94
2022-11-25T12:52:55.646Z,100677.72
2022-11-25T12:55:25.711Z,100683.63
2022-11-25T12:58:11.621Z,100686.25
2022-11-25T13:00:51.783Z,100688.72
2022-11-25T13:03:36.427Z,100694.53
2022-11-25T13:06:18.422Z,100700.59
2022-11-25T13:08:56.834Z,100701.75
2022-11-25T13:11:58.579Z,100717.16
2022-11-25T13:14:30.128Z,100714.94
2022-11-25T13:17:00.068Z,100715.94
2022-11-25T13:19:28.236Z,100720.44
2022-11-25T13:21:58.446Z,100723.25
2022-11-25T13:24:33.982Z,100720.28
2022-11-25T13:27:02.333Z,100729.53
2022-11-25T13:30:18.614Z,100739.22
2022-11-25T13:32:46.259Z,100731.28
2022-11-25T13:35:58.287Z,100737.41
2022-11-25T13:38:58.875Z,100738.97
2022-11-25T13:41:38.712Z,100737.56
2022-11-25T13:44:08.388Z,100750.44
2022-11-25T13:46:47.073Z,100754.97
2022-11-25T13:49:30.100Z,100755.63
2022-11-25T13:52:00.248Z,100762.88
2022-11-25T13:54:34.903Z,100756.34
2022-11-25T13:57:19.741Z,100763.56
2022-11-25T13:59:53.251Z,100760.88
2022-11-25T14:06:07.577Z,100784.44
2022-11-25T14:08:39.547Z,100792.28
2022-11-25T14:11:39.888Z,100790.81
2022-11-25T14:14:22.239Z,100792.25
2022-11-25T14:17:00.492Z,100794.53
2022-11-25T14:19:52.477Z,100797.19
2022-11-25T14:22:35.847Z,100798.41
2022-11-25T14:25:15.060Z,100802.16
2022-11-25T14:27:47.359Z,100794.09
2022-11-25T14:30:18.143Z,100792.59
2022-11-25T14:32:50.510Z,100799.66
2022-11-25T14:35:22.269Z,100804.59
2022-11-25T14:37:58.086Z,100805.88
2022-11-25T14:40:30.968Z,100812.28
2022-11-25T14:43:04.484Z,100811.44
2022-11-25T14:45:34.352Z,100807.94
2022-11-25T14:48:14.478Z,100817.28
2022-11-25T14:50:55.372Z,100818.31
2022-11-25T14:53:25.640Z,100826.16
2022-11-25T14:55:57.757Z,100829.31
2022-11-25T14:58:25.421Z,100836.09
2022-11-25T15:00:54.745Z,100838.16
2022-11-25T15:03:22.252Z,100837.94
2022-11-25T15:05:55.534Z,100842.28
2022-11-25T15:08:25.430Z,100846.16
2022-11-25T15:10:55.226Z,100844.31
2022-11-25T15:13:32.964Z,100856.66
2022-11-25T15:16:06.635Z,100856.84
2022-11-25T15:18:35.215Z,100857.47
2022-11-25T15:21:03.267Z,100862.38
2022-11-25T15:23:34.741Z,100860.75
2022-11-25T15:26:03.334Z,100867.53
2022-11-25T15:28:36.391Z,100861.16
2022-11-25T15:31:09.978Z,100868.59
2022-11-25T15:33:38.199Z,100871.47
2022-11-25T15:36:06.484Z,100881.97
2022-11-25T15:38:42.468Z,100885.44
2022-11-25T15:41:20.043Z,100885.25
2022-11-25T15:43:49.841Z,100889.56
2022-11-25T15:46:17.941Z,100896.94
2022-11-25T15:48:47.510Z,100892.81
2022-11-25T15:51:22.933Z,100899.66
2022-11-25T15:53:54.949Z,100909.56
2022-11-25T15:56:25.797Z,100914.50
2022-11-25T15:58:56.177Z,100911.38
2022-11-25T16:01:29.929Z,100921.47
2022-11-25T16:04:11.511Z,100924.97
2022-11-25T16:06:53.505Z,100937.53
2022-11-25T16:09:25.491Z,100941.22
2022-11-25T16:11:53.307Z,100941.47
2022-11-25T16:14:27.136Z,100945.16
2022-11-25T16:16:57.141Z,100943.50
2022-11-25T16:19:27.742Z,100950.47
2022-11-25T16:22:01.496Z,100954.41
2022-11-25T16:24:39.830Z,100959.56
2022-11-25T16:27:17.199Z,100967.69
2022-11-25T16:29:54.154Z,100971.78
2022-11-25T16:32:23.367Z,100976.47
2022-11-25T16:34:51.022Z,100974.53
2022-11-25T16:37:18.879Z,100980.25
2022-11-25T16:39:48.877Z,100988.84
2022-11-25T16:42:21.532Z,100992.75
2022-11-25T16:44:50.898Z,100998.63
2022-11-25T16:47:23.108Z,100994.75
2022-11-25T16:49:50.937Z,100996.94
2022-11-25T16:52:21.488Z,100996.91
2022-11-25T16:54:50.411Z,101002.41
2022-11-25T16:57:20.337Z,101007.44
2022-11-25T16:59:57.265Z,101008.97
2022-11-25T17:02:27.893Z,101016.97
2022-11-25T17:04:55.580Z,101026.59
2022-11-25T17:07:32.772Z,101027.19
2022-11-25T17:10:02.677Z,101032.00
2022-11-25T17:12:32.194Z,101036.31
2022-11-25T17:15:01.158Z,101038.25
2022-11-25T17:17:29.265Z,101050.50
2022-11-25T17:19:57.234Z,101041.13
2022-11-25T17:22:27.063Z,101053.19
2022-11-25T17:24:54.880Z,101058.34
2022-11-25T17:27:27.286Z,101053.75
2022-11-25T17:29:55.883Z,101059.72
2022-11-25T17:32:25.561Z,101064.81
2022-11-25T17:34:54.348Z,101069.91
2022-11-25T17:37:24.147Z,101069.84
2022-11-25T17:39:53.361Z,101066.22
2022-11-25T17:42:26.791Z,101081.75
2022-11-25T17:44:55.594Z,101081.88
2022-11-25T17:47:23.125Z,101092.28
2022-11-25T17:49:52.119Z,101096.47
2022-11-25T17:52:19.908Z,101105.53
2022-11-25T17:54:47.578Z,101108.09
2022-11-25T17:57:17.069Z,101117.59
2022-11-25T17:59:46.195Z,101118.22
2022-11-25T18:02:19.514Z,101123.56
2022-11-25T18:04:47.624Z,101132.25
2022-11-25T18:07:15.421Z,101135.91
2022-11-25T18:09:44.530Z,101128.47
2022-11-25T18:12:31.122Z,101143.72
2022-11-25T18:15:01.207Z,101145.97
2022-11-25T18:17:29.390Z,101141.63
2022-11-25T18:19:57.872Z,101155.19
2022-11-25T18:22:25.366Z,101149.53
2022-11-25T18:24:53.039Z,101155.63
2022-11-25T18:27:24.087Z,101159.63
2022-11-25T18:29:52.329Z,101158.69
2022-11-25T18:32:22.533Z,101163.38
2022-11-25T18:34:50.506Z,101172.44
2022-11-25T18:37:18.367Z,101177.94
2022-11-25T18:39:46.734Z,101183.28
2022-11-25T18:42:20.887Z,101183.50
2022-11-25T18:44:48.834Z,101178.56
2022-11-25T18:47:16.409Z,101186.13
2022-11-25T18:49:45.543Z,101187.59
2022-11-25T18:52:13.074Z,101196.44
2022-11-25T18:54:41.419Z,101211.25
2022-11-25T18:57:10.636Z,101201.59
2022-11-25T18:59:38.255Z,101210.69
2022-11-25T19:02:12.049Z,101212.50
2022-11-25T19:04:39.951Z,101216.00
2022-11-25T19:07:09.105Z,101211.44
2022-11-25T19:09:36.748Z,101210.13
2022-11-25T19:12:05.131Z,101215.56
2022-11-25T19:14:49.049Z,101210.69
2022-11-25T19:17:22.001Z,101231.69
2022-11-25T19:19:49.727Z,101235.75
2022-11-25T19:22:23.198Z,101230.97
2022-11-25T19:24:51.169Z,101244.19
2022-11-25T19:27:23.333Z,101241.25
2022-11-25T19:29:52.923Z,101237.78
2022-11-25T19:32:22.763Z,101238.13
2022-11-25T19:34:53.640Z,101244.88
2022-11-25T19:37:23.840Z,101251.28
2022-11-25T19:39:53.347Z,101262.25
2022-11-25T19:42:20.889Z,101257.84
2022-11-25T19:44:49.192Z,101259.03
2022-11-25T19:47:18.879Z,101269.19
2022-11-25T19:49:46.876Z,101279.94
2022-11-25T19:52:16.989Z,101278.84
2022-11-25T19:54:45.927Z,101284.25
2022-11-25T19:57:17.109Z,101286.28
2022-11-25T19:59:45.918Z,101291.19
2022-11-25T20:02:16.357Z,101300.56
2022-11-25T20:04:45.565Z,101296.47
2022-11-25T20:07:14.988Z,101310.03
2022-11-25T20:09:42.851Z,101312.25
2022-11-25T20:12:20.896Z,101315.53
2022-11-25T20:14:50.275Z,101320.97
2022-11-25T20:17:24.651Z,101317.75
2022-11-25T20:19:53.255Z,101320.44
2022-11-25T20:22:23.344Z,101327.06
2022-11-25T20:24:51.307Z,101337.44
2022-11-25T20:27:20.680Z,101337.25
2022-11-25T20:29:48.662Z,101348.19
2022-11-25T20:32:20.737Z,101353.19
2022-11-25T20:34:48.561Z,101359.81
2022-11-25T20:37:30.358Z,101364.94
2022-11-25T20:40:00.860Z,101369.94
2022-11-25T20:42:32.615Z,101374.53
2022-11-25T20:45:01.589Z,101375.63
2022-11-25T20:47:30.087Z,101372.34
2022-11-25T20:49:57.636Z,101374.94
2022-11-25T20:52:28.326Z,101389.09
2022-11-25T20:54:55.866Z,101388.72
2022-11-25T20:57:23.755Z,101392.47
2022-11-25T20:59:52.841Z,101397.16
2022-11-25T21:02:21.411Z,101404.00
2022-11-25T21:04:49.961Z,101410.16
2022-11-25T21:07:18.715Z,101412.56
2022-11-25T21:09:46.582Z,101417.22
2022-11-25T21:12:19.530Z,101418.22
2022-11-25T21:14:48.309Z,101422.59
2022-11-25T21:17:17.534Z,101434.97
2022-11-25T21:19:45.460Z,101435.78
2022-11-25T21:22:14.866Z,101441.34
2022-11-25T21:24:42.997Z,101444.47
2022-11-25T21:27:14.626Z,101449.47
2022-11-25T21:29:44.218Z,101451.34
2022-11-25T21:32:21.886Z,101458.00
2022-11-25T21:34:50.101Z,101458.66
2022-11-25T21:37:21.862Z,101459.50
2022-11-25T21:39:49.646Z,101468.00
2022-11-25T21:42:20.170Z,101473.00
2022-11-25T21:44:49.961Z,101478.00
2022-11-25T21:47:19.148Z,101483.34
2022-11-25T21:49:51.994Z,101483.97
2022-11-25T21:52:20.459Z,101485.28
2022-11-25T21:54:47.997Z,101490.63
2022-11-25T21:57:17.179Z,101489.66
2022-11-25T21:59:46.435Z,101500.97
2022-11-25T22:02:19.625Z,101509.97
2022-11-25T22:04:48.972Z,101513.28
2022-11-25T22:07:16.661Z,101509.81
2022-11-25T22:09:44.524Z,101513.81
2022-11-25T22:12:25.818Z,101515.97
2022-11-25T22:14:53.565Z,101518.63
2022-11-25T22:17:21.234Z,101518.44
2022-11-25T22:19:51.971Z,101519.63
2022-11-25T22:22:21.707Z,101520.75
2022-11-25T22:24:49.394Z,101517.94
2022-11-25T22:27:22.525Z,101516.94
2022-11-25T22:29:51.578Z,101519.59
2022-11-25T22:32:19.210Z,101524.25
2022-11-25T22:34:48.240Z,101533.84
2022-11-25T22:37:19.617Z,101538.84
2022-11-25T22:39:47.713Z,101537.78
2022-11-25T22:42:20.362Z,101547.09
2022-11-25T22:44:49.111Z,101545.72
2022-11-25T22:47:28.354Z,101563.16
2022-11-25T22:49:57.263Z,101560.75
2022-11-25T22:52:28.554Z,101569.03
2022-11-25T22:54:56.613Z,101575.63
2022-11-25T22:57:24.260Z,101573.09
2022-11-25T22:59:52.850Z,101587.91
2022-11-25T23:02:22.615Z,101592.06
2022-11-25T23:04:53.154Z,101600.28
2022-11-25T23:07:21.286Z,101605.63
2022-11-25T23:09:50.694Z,101613.03
2022-11-25T23:12:19.094Z,101612.41
2022-11-25T23:14:46.731Z,101613.50
2022-11-25T23:17:18.958Z,101617.44
2022-11-25T23:19:46.584Z,101613.53
2022-11-25T23:22:14.416Z,101613.16
2022-11-25T23:24:45.361Z,101611.56
2022-11-25T23:27:14.769Z,101614.31
2022-11-25T23:29:42.466Z,101608.72
2022-11-25T23:32:17.832Z,101619.03
2022-11-25T23:34:46.749Z,101621.25
2022-11-25T23:37:15.354Z,101617.00
2022-11-25T23:39:42.965Z,101621.09
2022-11-25T23:42:17.892Z,101628.31
2022-11-25T23:44:45.626Z,101629.94
2022-11-25T23:47:18.686Z,101636.13
2022-11-25T23:49:48.824Z,101630.84
2022-11-25T23:52:20.155Z,101637.06
2022-11-25T23:54:49.159Z,101641.63
2022-11-25T23:57:18.929Z,101642.03
2022-11-25T23:59:48.510Z,101647.59
